createdAt,value
2022-10-21T00:01:21.522Z,20.25
2022-10-21T00:03:49.094Z,22.45
2022-10-21T00:06:16.868Z,25.48
2022-10-21T00:08:44.781Z,25.90
2022-10-21T00:11:12.573Z,29.77
2022-10-21T00:13:40.815Z,25.77
2022-10-21T00:16:10.266Z,26.45
2022-10-21T00:18:38.952Z,23.55
2022-10-21T00:21:08.001Z,24.70
2022-10-21T00:23:40.376Z,26.23
2022-10-21T00:26:08.291Z,21.77
2022-10-21T00:28:36.537Z,22.92
2022-10-21T00:31:06.516Z,19.58
2022-10-21T00:33:34.415Z,20.60
2022-10-21T00:36:03.109Z,20.98
2022-10-21T00:38:32.357Z,21.50
2022-10-21T00:41:00.274Z,19.58
2022-10-21T00:43:28.675Z,23.10
2022-10-21T00:46:02.027Z,30.17
2022-10-21T00:48:33.552Z,24.50
2022-10-21T00:51:06.987Z,23.73
2022-10-21T00:53:36.188Z,25.25
2022-10-21T00:56:09.938Z,25.35
2022-10-21T00:58:40.986Z,40.22
2022-10-21T01:01:12.176Z,29.75
2022-10-21T01:03:43.744Z,33.42
2022-10-21T01:06:12.494Z,30.02
2022-10-21T01:08:40.921Z,28.65
2022-10-21T01:11:12.881Z,31.50
2022-10-21T01:14:02.304Z,29.67
2022-10-21T01:16:48.992Z,27.88
2022-10-21T01:19:46.183Z,31.08
2022-10-21T01:22:23.570Z,27.58
2022-10-21T01:24:59.935Z,29.80
2022-10-21T01:27:36.079Z,32.60
2022-10-21T01:30:22.730Z,26.58
2022-10-21T01:33:16.898Z,27.98
2022-10-21T01:35:44.710Z,24.73
2022-10-21T01:38:21.751Z,24.65
2022-10-21T01:40:49.360Z,25.52
2022-10-21T01:43:20.169Z,30.50
2022-10-21T01:45:50.000Z,25.58
2022-10-21T01:48:29.326Z,24.80
2022-10-21T01:51:02.788Z,22.83
2022-10-21T01:53:31.863Z,25.05
2022-10-21T01:56:00.520Z,20.60
2022-10-21T01:58:30.393Z,23.60
2022-10-21T02:00:59.617Z,23.98
2022-10-21T02:03:32.975Z,21.30
2022-10-21T02:06:01.381Z,23.33
2022-10-21T02:08:29.642Z,20.65
2022-10-21T02:10:59.844Z,22.85
2022-10-21T02:13:36.326Z,24.75
2022-10-21T02:16:06.329Z,21.88
2022-10-21T02:18:34.142Z,25.43
2022-10-21T02:21:05.136Z,20.10
2022-10-21T02:26:00.559Z,20.10
2022-10-21T02:28:28.580Z,24.00
2022-10-21T02:31:11.113Z,28.15
2022-10-21T02:33:52.613Z,23.85
2022-10-21T02:36:26.551Z,21.13
2022-10-21T02:39:01.553Z,21.27
2022-10-21T02:41:29.927Z,20.25
2022-10-21T02:43:58.703Z,19.40
2022-10-21T02:46:26.781Z,21.70
2022-10-21T02:48:54.379Z,23.65
2022-10-21T02:51:22.054Z,26.38
2022-10-21T02:53:49.674Z,20.67
2022-10-21T02:56:17.588Z,26.88
2022-10-21T02:58:45.158Z,26.30
2022-10-21T03:01:13.175Z,30.75
2022-10-21T03:03:41.015Z,29.58
2022-10-21T03:06:08.950Z,32.42
2022-10-21T03:08:36.666Z,31.17
2022-10-21T03:11:05.086Z,26.35
2022-10-21T03:13:32.960Z,33.28
2022-10-21T03:16:01.709Z,36.00
2022-10-21T03:18:29.443Z,35.20
2022-10-21T03:20:57.226Z,36.35
2022-10-21T03:23:24.895Z,39.03
2022-10-21T03:25:52.554Z,32.88
2022-10-21T03:28:20.910Z,36.72
2022-10-21T03:30:48.788Z,29.75
2022-10-21T03:33:16.439Z,27.35
2022-10-21T03:35:44.513Z,40.78
2022-10-21T03:38:12.446Z,31.95
2022-10-21T03:40:40.434Z,36.50
2022-10-21T03:43:08.274Z,31.58
2022-10-21T03:45:35.948Z,40.60
2022-10-21T03:48:03.549Z,38.55
2022-10-21T03:50:31.268Z,32.22
2022-10-21T03:52:59.795Z,35.72
2022-10-21T03:55:27.994Z,34.03
2022-10-21T03:57:55.768Z,31.75
2022-10-21T04:00:25.157Z,33.70
2022-10-21T04:02:54.946Z,29.92
2022-10-21T04:05:22.609Z,34.47
2022-10-21T04:07:53.040Z,35.67
2022-10-21T04:10:21.424Z,35.65
2022-10-21T04:12:49.006Z,31.95
2022-10-21T04:15:16.780Z,33.90
2022-10-21T04:17:46.794Z,36.92
2022-10-21T04:20:14.785Z,37.22
2022-10-21T04:22:42.457Z,34.25
2022-10-21T04:25:10.242Z,38.83
2022-10-21T04:27:38.029Z,32.10
2022-10-21T04:30:05.898Z,40.25
2022-10-21T04:32:33.488Z,35.47
2022-10-21T04:35:01.066Z,38.58
2022-10-21T04:37:28.607Z,41.60
2022-10-21T04:39:57.285Z,39.22
2022-10-21T04:42:25.513Z,41.05
2022-10-21T04:44:53.259Z,38.38
2022-10-21T04:47:20.997Z,35.38
2022-10-21T04:49:48.674Z,36.40
2022-10-21T04:52:16.343Z,36.13
2022-10-21T04:54:44.272Z,41.45
2022-10-21T04:57:13.477Z,39.55
2022-10-21T04:59:41.161Z,33.05
2022-10-21T05:02:08.772Z,40.45
2022-10-21T05:04:36.448Z,37.90
2022-10-21T05:07:04.012Z,40.50
2022-10-21T05:09:31.821Z,40.63
2022-10-21T05:11:59.379Z,42.15
2022-10-21T05:14:27.287Z,42.80
2022-10-21T05:16:55.022Z,33.97
2022-10-21T05:19:24.737Z,33.20
2022-10-21T05:21:54.223Z,33.85
2022-10-21T05:24:22.136Z,43.85
2022-10-21T05:26:49.858Z,37.92
2022-10-21T05:29:17.506Z,38.17
2022-10-21T05:31:45.282Z,36.90
2022-10-21T05:34:13.259Z,39.38
2022-10-21T05:36:40.999Z,41.15
2022-10-21T05:39:11.418Z,41.15
2022-10-21T05:41:41.065Z,42.88
2022-10-21T05:44:10.799Z,40.70
2022-10-21T05:46:38.561Z,41.42
2022-10-21T05:49:06.860Z,32.17
2022-10-21T05:51:34.418Z,37.33
2022-10-21T05:54:03.859Z,41.50
2022-10-21T05:56:31.605Z,35.10
2022-10-21T05:58:59.156Z,35.92
2022-10-21T06:01:26.680Z,35.88
2022-10-21T06:03:54.482Z,31.90
2022-10-21T06:06:22.046Z,33.58
2022-10-21T06:08:49.673Z,36.95
2022-10-21T06:11:18.591Z,29.15
2022-10-21T06:13:46.373Z,31.80
2022-10-21T06:16:14.977Z,32.40
2022-10-21T06:18:42.956Z,28.80
2022-10-21T06:21:10.584Z,30.15
2022-10-21T06:23:40.090Z,30.52
2022-10-21T06:26:16.800Z,36.10
2022-10-21T06:28:45.437Z,28.48
2022-10-21T06:31:18.911Z,26.60
2022-10-21T06:33:46.646Z,32.55
2022-10-21T06:36:14.573Z,35.25
2022-10-21T06:38:42.254Z,32.28
2022-10-21T06:41:13.220Z,30.15
2022-10-21T06:43:42.058Z,32.47
2022-10-21T06:46:10.953Z,33.63
2022-10-21T06:48:38.598Z,26.02
2022-10-21T06:51:07.775Z,19.30
2022-10-21T06:53:38.992Z,20.05
2022-10-21T06:56:08.567Z,15.65
2022-10-21T06:58:37.004Z,19.98
2022-10-21T07:01:16.568Z,19.15
2022-10-21T07:03:55.845Z,19.20
2022-10-21T07:06:23.546Z,17.58
2022-10-21T07:08:58.286Z,23.05
2022-10-21T07:11:27.715Z,15.82
2022-10-21T07:13:55.780Z,14.68
2022-10-21T07:16:25.144Z,13.43
2022-10-21T07:18:53.173Z,13.48
2022-10-21T07:21:21.812Z,17.00
2022-10-21T07:23:51.428Z,13.65
2022-10-21T07:26:19.949Z,11.27
2022-10-21T07:28:48.129Z,12.80
2022-10-21T07:31:16.375Z,10.00
2022-10-21T07:33:44.396Z,7.38
2022-10-21T07:36:13.710Z,6.90
2022-10-21T07:38:46.678Z,5.90
2022-10-21T07:41:17.553Z,8.20
2022-10-21T07:43:45.280Z,8.55
2022-10-21T07:46:13.008Z,12.07
2022-10-21T07:48:40.887Z,5.93
2022-10-21T07:51:12.832Z,7.60
2022-10-21T07:53:40.858Z,8.10
2022-10-21T07:56:10.164Z,3.97
2022-10-21T07:58:38.169Z,3.35
2022-10-21T08:01:06.853Z,6.97
2022-10-21T08:03:34.597Z,5.55
2022-10-21T08:06:02.620Z,4.88
2022-10-21T08:08:30.384Z,3.13
2022-10-21T08:10:58.102Z,3.05
2022-10-21T08:13:26.163Z,8.07
2022-10-21T08:15:55.163Z,17.00
2022-10-21T08:18:23.202Z,4.03
2022-10-21T08:20:50.781Z,5.70
2022-10-21T08:23:19.649Z,7.82
2022-10-21T08:25:58.001Z,5.55
2022-10-21T08:28:26.838Z,1.85
2022-10-21T08:30:54.654Z,5.45
2022-10-21T08:33:22.316Z,4.18
2022-10-21T08:35:49.960Z,5.47
2022-10-21T08:38:17.722Z,8.85
2022-10-21T08:40:46.379Z,5.65
2022-10-21T08:43:20.446Z,3.92
2022-10-21T08:45:54.171Z,3.35
2022-10-21T08:48:32.487Z,4.43
2022-10-21T08:51:00.902Z,6.45
2022-10-21T08:53:32.116Z,5.75
2022-10-21T08:56:03.303Z,3.17
2022-10-21T08:58:30.976Z,5.70
2022-10-21T09:01:04.597Z,3.42
2022-10-21T09:03:54.434Z,4.03
2022-10-21T09:06:26.537Z,2.90
2022-10-21T09:08:57.708Z,3.80
2022-10-21T09:11:37.016Z,3.72
2022-10-21T09:14:23.769Z,2.90
2022-10-21T09:16:58.475Z,7.95
2022-10-21T09:19:41.483Z,6.05
2022-10-21T09:22:34.945Z,4.53
2022-10-21T09:25:19.733Z,4.82
2022-10-21T09:28:03.296Z,3.95
2022-10-21T09:30:31.238Z,4.18
2022-10-21T09:32:59.967Z,6.25
2022-10-21T09:35:33.665Z,6.60
2022-10-21T09:38:17.237Z,5.55
2022-10-21T09:40:45.891Z,6.32
2022-10-21T09:43:18.116Z,4.40
2022-10-21T09:45:46.744Z,5.00
2022-10-21T09:48:20.652Z,4.90
2022-10-21T09:51:04.596Z,4.90
2022-10-21T09:53:38.135Z,5.55
2022-10-21T09:56:10.327Z,3.03
2022-10-21T09:58:37.965Z,5.40
2022-10-21T10:01:09.184Z,4.90
2022-10-21T10:03:45.712Z,6.75
2022-10-21T10:06:13.425Z,6.45
2022-10-21T10:08:45.079Z,5.65
2022-10-21T10:11:14.458Z,4.13
2022-10-21T10:13:46.756Z,5.97
2022-10-21T10:16:14.852Z,3.80
2022-10-21T10:18:42.870Z,5.28
2022-10-21T10:21:14.348Z,5.45
2022-10-21T10:23:54.396Z,6.20
2022-10-21T10:26:24.446Z,5.70
2022-10-21T10:28:53.831Z,8.23
2022-10-21T10:31:25.843Z,6.07
2022-10-21T10:33:58.857Z,9.05
2022-10-21T10:36:35.286Z,10.35
2022-10-21T10:39:03.916Z,5.93
2022-10-21T10:41:36.397Z,4.05
2022-10-21T10:44:09.495Z,6.85
2022-10-21T10:46:37.938Z,6.90
2022-10-21T10:49:14.735Z,6.25
2022-10-21T10:51:42.653Z,10.02
2022-10-21T10:54:17.559Z,10.75
2022-10-21T10:56:58.848Z,14.57
2022-10-21T10:59:44.223Z,10.18
2022-10-21T11:02:14.965Z,10.85
2022-10-21T11:04:49.810Z,14.73
2022-10-21T11:07:24.675Z,14.75
2022-10-21T11:09:53.521Z,12.57
2022-10-21T11:12:25.871Z,12.45
2022-10-21T11:14:58.410Z,13.02
2022-10-21T11:17:31.012Z,14.70
2022-10-21T11:20:02.704Z,14.43
2022-10-21T11:22:39.593Z,15.02
2022-10-21T11:25:15.402Z,14.05
2022-10-21T11:27:52.226Z,13.75
2022-10-21T11:30:21.361Z,12.52
2022-10-21T11:33:10.108Z,13.30
2022-10-21T11:35:44.146Z,10.68
2022-10-21T11:38:21.049Z,11.35
2022-10-21T11:41:03.534Z,9.85
2022-10-21T11:43:40.647Z,12.13
2022-10-21T11:46:13.612Z,8.25
2022-10-21T11:49:00.029Z,9.32
2022-10-21T11:51:27.649Z,14.20
2022-10-21T11:54:07.625Z,9.40
2022-10-21T11:56:40.243Z,14.68
2022-10-21T11:59:20.129Z,12.82
2022-10-21T12:01:51.995Z,13.05
2022-10-21T12:04:35.284Z,14.40
2022-10-21T12:07:26.014Z,11.50
2022-10-21T12:10:02.861Z,9.60
2022-10-21T12:12:35.699Z,18.48
2022-10-21T12:15:07.855Z,11.75
2022-10-21T12:20:07.836Z,8.02
2022-10-21T12:22:36.590Z,10.93
2022-10-21T12:25:33.734Z,6.63
2022-10-21T12:28:12.464Z,9.95
2022-10-21T12:31:05.932Z,5.18
2022-10-21T12:33:39.103Z,8.70
2022-10-21T12:36:25.887Z,9.88
2022-10-21T12:38:55.062Z,12.25
2022-10-21T12:41:25.892Z,6.93
2022-10-21T12:46:25.894Z,9.20
2022-10-21T12:48:53.833Z,8.07
2022-10-21T12:51:29.356Z,11.25
2022-10-21T12:54:03.247Z,8.13
2022-10-21T12:56:32.649Z,12.40
2022-10-21T12:59:03.636Z,8.35
2022-10-21T13:01:39.955Z,7.20
2022-10-21T13:04:40.337Z,7.68
2022-10-21T13:07:14.313Z,7.87
2022-10-21T13:09:44.693Z,7.82
2022-10-21T13:12:12.533Z,10.93
2022-10-21T13:14:43.133Z,7.30
2022-10-21T13:17:22.984Z,11.85
2022-10-21T13:19:54.952Z,7.47
2022-10-21T13:22:39.419Z,5.43
2022-10-21T13:25:16.672Z,9.05
2022-10-21T13:27:48.117Z,10.20
2022-10-21T13:30:34.510Z,7.97
2022-10-21T13:33:03.803Z,6.40
2022-10-21T13:35:40.617Z,7.32
2022-10-21T13:38:17.434Z,8.48
2022-10-21T13:40:49.191Z,8.15
2022-10-21T13:43:19.654Z,6.22
2022-10-21T13:45:49.482Z,8.38
2022-10-21T13:48:20.743Z,9.23
2022-10-21T13:50:50.618Z,8.23
2022-10-21T13:53:26.574Z,6.40
2022-10-21T13:56:08.613Z,5.03
2022-10-21T13:58:39.287Z,9.52
2022-10-21T14:03:37.086Z,7.28
2022-10-21T14:06:10.441Z,9.30
2022-10-21T14:08:42.815Z,7.30
2022-10-21T14:11:17.288Z,6.68
2022-10-21T14:13:45.472Z,6.93
2022-10-21T14:16:18.991Z,7.25
2022-10-21T14:18:47.311Z,10.40
2022-10-21T14:21:17.918Z,6.43
2022-10-21T14:23:46.685Z,9.52
2022-10-21T14:26:14.995Z,6.47
2022-10-21T14:28:44.159Z,10.50
2022-10-21T14:31:12.900Z,9.38
2022-10-21T14:33:42.654Z,5.82
2022-10-21T14:36:23.278Z,6.38
2022-10-21T14:38:51.665Z,7.15
2022-10-21T14:41:27.428Z,6.03
2022-10-21T14:43:55.524Z,6.50
2022-10-21T14:46:23.213Z,11.38
2022-10-21T14:48:54.238Z,9.18
2022-10-21T14:51:22.792Z,8.40
2022-10-21T14:53:51.329Z,8.98
2022-10-21T14:56:21.965Z,8.02
2022-10-21T14:58:54.770Z,6.03
2022-10-21T15:01:25.748Z,6.72
2022-10-21T15:03:55.156Z,6.35
2022-10-21T15:06:24.715Z,6.75
2022-10-21T15:09:01.147Z,6.72
2022-10-21T15:11:29.187Z,6.28
2022-10-21T15:14:08.306Z,8.32
2022-10-21T15:16:36.359Z,4.40
2022-10-21T15:19:10.833Z,4.85
2022-10-21T15:21:42.177Z,3.03
2022-10-21T15:24:18.874Z,3.88
2022-10-21T15:26:48.190Z,3.80
2022-10-21T15:29:16.764Z,4.60
2022-10-21T15:31:48.870Z,7.13
2022-10-21T15:34:22.402Z,6.55
2022-10-21T15:36:50.519Z,4.43
2022-10-21T15:39:25.548Z,3.83
2022-10-21T16:00:41.049Z,3.08
2022-10-21T16:03:11.966Z,4.57
2022-10-21T16:05:53.505Z,3.30
2022-10-21T16:11:34.757Z,5.82
2022-10-21T16:14:14.999Z,3.83
2022-10-21T16:16:46.541Z,3.83
2022-10-21T16:22:02.990Z,4.75
2022-10-21T16:24:30.581Z,5.50
2022-10-21T16:26:58.686Z,6.15
2022-10-21T16:34:56.939Z,4.75
2022-10-21T16:40:22.379Z,6.95
2022-10-21T16:42:51.944Z,5.15
2022-10-21T16:45:21.672Z,6.57
2022-10-21T16:47:52.974Z,7.47
2022-10-21T16:50:37.686Z,8.88
2022-10-21T16:53:07.919Z,6.47
2022-10-21T17:01:00.275Z,7.18
2022-10-21T17:12:13.625Z,11.32
2022-10-21T17:17:11.099Z,10.85
2022-10-21T17:19:38.657Z,8.10
2022-10-21T17:22:06.376Z,10.07
2022-10-21T17:24:34.172Z,11.50
2022-10-21T17:27:07.114Z,11.87
2022-10-21T17:29:41.074Z,8.18
2022-10-21T17:32:12.747Z,10.80
2022-10-21T17:34:44.514Z,8.68
2022-10-21T17:37:15.846Z,12.40
2022-10-21T17:39:50.735Z,9.57
2022-10-21T17:48:16.973Z,10.85
2022-10-21T18:00:42.390Z,10.02
2022-10-21T18:03:19.085Z,10.35
2022-10-21T18:05:56.503Z,10.65
2022-10-21T18:11:24.265Z,11.32
2022-10-21T18:13:56.604Z,12.32
2022-10-21T18:19:15.097Z,11.53
2022-10-21T18:22:00.913Z,7.85
2022-10-21T18:24:29.128Z,10.93
2022-10-21T18:26:57.612Z,11.65
2022-10-21T18:32:14.865Z,8.30
2022-10-21T18:34:52.393Z,11.85
2022-10-21T18:37:25.438Z,13.43
2022-10-21T18:40:04.870Z,18.75
2022-10-21T18:42:40.718Z,8.38
2022-10-21T18:47:55.185Z,13.75
2022-10-21T18:50:24.841Z,9.13
2022-10-21T18:55:46.845Z,9.25
2022-10-21T18:58:16.830Z,15.73
2022-10-21T19:00:44.685Z,12.65
2022-10-21T19:03:12.388Z,11.45
2022-10-21T19:05:42.111Z,7.82
2022-10-21T19:08:09.643Z,10.00
2022-10-21T19:10:37.220Z,8.80
2022-10-21T19:13:05.035Z,8.45
2022-10-21T19:15:35.340Z,6.20
2022-10-21T19:18:03.292Z,6.63
2022-10-21T19:20:31.766Z,6.20
2022-10-21T19:22:59.540Z,8.35
2022-10-21T19:25:27.212Z,5.88
2022-10-21T19:27:55.231Z,10.73
2022-10-21T19:30:22.918Z,7.40
2022-10-21T19:32:50.636Z,8.73
2022-10-21T19:35:18.391Z,5.82
2022-10-21T19:37:46.209Z,8.25
2022-10-21T19:40:13.980Z,6.18
2022-10-21T19:45:23.260Z,8.52
2022-10-21T19:47:51.016Z,7.60
2022-10-21T19:50:18.651Z,6.72
2022-10-21T19:52:46.289Z,6.40
2022-10-21T19:55:13.953Z,5.55
2022-10-21T19:57:41.535Z,7.22
2022-10-21T20:00:09.567Z,6.43
2022-10-21T20:02:41.267Z,6.50
2022-10-21T20:05:12.199Z,8.30
2022-10-21T20:07:40.644Z,7.57
2022-10-21T20:10:11.178Z,3.95
2022-10-21T20:12:39.047Z,12.30
2022-10-21T20:15:06.962Z,5.47
2022-10-21T20:17:34.832Z,6.20
2022-10-21T20:20:02.540Z,5.80
2022-10-21T20:22:30.952Z,6.97
2022-10-21T20:24:58.714Z,6.90
2022-10-21T20:27:27.111Z,7.65
2022-10-21T20:29:54.789Z,7.55
2022-10-21T20:32:22.436Z,5.13
2022-10-21T20:34:50.366Z,5.55
2022-10-21T20:37:18.890Z,5.05
2022-10-21T20:39:48.022Z,6.88
2022-10-21T20:42:15.904Z,4.30
2022-10-21T20:47:11.351Z,4.68
2022-10-21T20:49:39.689Z,2.65
2022-10-21T20:52:07.430Z,2.85
2022-10-21T20:54:35.160Z,3.13
2022-10-21T20:57:03.158Z,3.53
2022-10-21T20:59:30.850Z,4.78
2022-10-21T21:01:58.608Z,4.35
2022-10-21T21:04:27.086Z,5.25
2022-10-21T21:06:54.899Z,3.25
2022-10-21T21:12:11.743Z,4.03
2022-10-21T21:14:42.690Z,3.03
2022-10-21T21:17:10.344Z,6.53
2022-10-21T21:19:39.790Z,2.78
2022-10-21T21:22:07.860Z,3.83
2022-10-21T21:24:35.557Z,5.57
2022-10-21T21:27:06.216Z,2.90
2022-10-21T21:29:33.846Z,6.88
2022-10-21T21:32:01.506Z,4.05
2022-10-21T21:34:38.198Z,4.47
2022-10-21T21:37:05.890Z,4.35
2022-10-21T21:39:36.651Z,4.55
2022-10-21T21:44:33.012Z,2.45
2022-10-21T21:47:00.744Z,3.95
2022-10-21T21:49:30.836Z,5.90
2022-10-21T21:52:07.772Z,5.13
2022-10-21T21:54:35.568Z,4.30
2022-10-21T21:57:26.766Z,4.90
2022-10-21T21:59:56.483Z,6.78
2022-10-21T22:02:34.417Z,1.77
2022-10-21T22:05:02.024Z,3.35
2022-10-21T22:07:32.376Z,3.78
2022-10-21T22:10:00.069Z,5.30
2022-10-21T22:12:27.804Z,2.97
2022-10-21T22:14:55.454Z,3.95
2022-10-21T22:17:23.193Z,2.17
2022-10-21T22:19:53.836Z,2.28
2022-10-21T22:22:21.630Z,3.40
2022-10-21T22:24:49.598Z,4.18
2022-10-21T22:27:17.111Z,3.28
2022-10-21T22:29:44.642Z,3.28
2022-10-21T22:32:12.767Z,2.03
2022-10-21T22:34:40.726Z,1.75
2022-10-21T22:37:08.359Z,3.83
2022-10-21T22:39:36.037Z,1.67
2022-10-21T22:42:03.858Z,2.70
2022-10-21T22:44:31.843Z,1.92
2022-10-21T22:47:00.423Z,2.10
2022-10-21T22:49:28.040Z,2.05
2022-10-21T22:51:55.704Z,2.80
2022-10-21T22:54:46.587Z,2.65
2022-10-21T22:57:11.115Z,1.70
2022-10-21T22:59:38.999Z,3.22
2022-10-21T23:02:06.784Z,3.42
2022-10-21T23:04:34.358Z,1.25
2022-10-21T23:07:02.270Z,2.13
2022-10-21T23:09:30.181Z,1.63
2022-10-21T23:11:57.824Z,1.30
2022-10-21T23:14:25.607Z,1.30
2022-10-21T23:16:53.777Z,1.48
2022-10-21T23:19:21.539Z,1.23
2022-10-21T23:21:50.268Z,2.75
2022-10-21T23:24:17.805Z,2.38
2022-10-21T23:26:45.511Z,2.10
2022-10-21T23:29:13.419Z,3.47
2022-10-21T23:31:41.059Z,3.10
2022-10-21T23:34:09.648Z,2.28
2022-10-21T23:36:37.433Z,4.85
2022-10-21T23:39:05.931Z,2.58
2022-10-21T23:41:33.706Z,3.08
2022-10-21T23:44:01.346Z,4.05
2022-10-21T23:46:29.031Z,4.85
2022-10-21T23:48:56.914Z,4.15
2022-10-21T23:51:24.543Z,2.33
2022-10-21T23:53:54.365Z,3.85
2022-10-21T23:56:22.321Z,1.90
2022-10-21T23:58:49.921Z,2.28
